Calabogie, Canada
Current Conditions -  °F | °C
As of 6:16 PM on Monday 20 Oct 2014 (Local Time) from CYOW Reporting Station
Light Rain Light Rain  
Wind Chill: 40°   Ceiling: 600
Heat Index: 43°   Visibility: 10mi
Dew Point: 41°   Wind: 5mph
Humidity: 93%   Direction: 60°ENE
Pressure: 29.89"   Gusts: NA
Location:  45.31°N, 76.72°W
Report Text: CYOW 202216Z 06004KT 040V120 10SM -RA OVC006 06/05 A2989 RMK SC8 SLP127
Loading
Personal Weather Stations






























Interactive Weather Map
Tropical Storm Tracking
New forecast layout! Learn more

10-Day Weather Forecast

Advertisements
Track Severe Weather on mobile